createdAt,value
2024-03-02T00:00:12.805Z,10.00
2024-03-02T00:01:16.062Z,10.00
2024-03-02T00:02:18.569Z,10.00
2024-03-02T00:03:21.522Z,10.10
2024-03-02T00:04:23.937Z,10.10
2024-03-02T00:05:26.318Z,10.10
2024-03-02T00:06:28.815Z,10.10
2024-03-02T00:07:31.371Z,10.10
2024-03-02T00:08:33.798Z,10.10
2024-03-02T00:09:36.664Z,10.10
2024-03-02T00:10:43.513Z,10.00
2024-03-02T00:11:45.783Z,10.10
2024-03-02T00:12:49.776Z,10.00
2024-03-02T00:13:55.218Z,10.00
2024-03-02T00:14:57.687Z,10.00
2024-03-02T00:16:00.312Z,10.00
2024-03-02T00:17:02.840Z,10.10
2024-03-02T00:18:06.209Z,10.10
2024-03-02T00:19:10.250Z,10.10
2024-03-02T00:20:19.465Z,10.10
2024-03-02T00:21:23.799Z,10.00
2024-03-02T00:22:26.265Z,10.10
2024-03-02T00:23:32.214Z,10.10
2024-03-02T00:24:36.770Z,10.10
2024-03-02T00:25:44.473Z,10.10
2024-03-02T00:26:47.628Z,10.10
2024-03-02T00:27:50.678Z,10.00
2024-03-02T00:28:58.495Z,10.20
2024-03-02T00:30:03.142Z,10.10
2024-03-02T00:31:09.020Z,10.10
2024-03-02T00:32:16.731Z,10.10
2024-03-02T00:33:21.100Z,10.10
2024-03-02T00:34:24.053Z,10.10
2024-03-02T00:35:26.617Z,10.10
2024-03-02T00:36:29.093Z,10.10
2024-03-02T00:37:31.586Z,10.10
2024-03-02T00:38:35.302Z,10.10
2024-03-02T00:39:37.707Z,10.10
2024-03-02T00:40:40.113Z,10.10
2024-03-02T00:41:45.842Z,10.10
2024-03-02T00:42:48.281Z,10.10
2024-03-02T00:43:59.866Z,10.20
2024-03-02T00:45:02.353Z,10.20
2024-03-02T00:46:04.780Z,10.20
2024-03-02T00:47:07.896Z,10.10
2024-03-02T00:48:10.329Z,10.10
2024-03-02T00:49:12.665Z,10.10
2024-03-02T00:50:20.761Z,10.00
2024-03-02T00:51:33.925Z,9.90
2024-03-02T00:52:37.138Z,9.90
2024-03-02T00:53:39.839Z,10.00
2024-03-02T00:54:42.287Z,10.00
2024-03-02T00:55:48.586Z,10.00
2024-03-02T00:56:51.734Z,10.00
2024-03-02T00:57:54.183Z,9.80
2024-03-02T00:58:56.661Z,9.80
2024-03-02T00:59:59.198Z,9.90
2024-03-02T01:01:01.684Z,9.90
2024-03-02T01:02:04.164Z,9.90
2024-03-02T01:03:06.608Z,9.90
2024-03-02T01:04:09.133Z,9.90
2024-03-02T01:05:11.551Z,9.90
2024-03-02T01:06:14.314Z,9.90
2024-03-02T01:07:16.737Z,9.90
2024-03-02T01:08:19.705Z,9.90
2024-03-02T01:09:22.248Z,9.90
2024-03-02T01:10:24.675Z,9.90
2024-03-02T01:11:27.185Z,9.90
2024-03-02T01:12:29.667Z,9.90
2024-03-02T01:13:33.256Z,10.00
2024-03-02T01:14:36.488Z,9.90
2024-03-02T01:15:39.008Z,9.90
2024-03-02T01:16:41.446Z,9.90
2024-03-02T01:17:43.825Z,10.00
2024-03-02T01:18:46.505Z,9.90
2024-03-02T01:19:49.081Z,9.90
2024-03-02T01:20:57.134Z,9.90
2024-03-02T01:21:59.695Z,9.90
2024-03-02T01:23:02.317Z,9.90
2024-03-02T01:24:05.051Z,9.90
2024-03-02T01:25:07.830Z,10.00
2024-03-02T01:26:10.252Z,10.00
2024-03-02T01:27:13.134Z,10.00
2024-03-02T01:28:16.037Z,10.00
2024-03-02T01:29:18.887Z,9.90
2024-03-02T01:30:21.296Z,9.90
2024-03-02T01:31:24.588Z,9.90
2024-03-02T01:32:27.341Z,9.80
2024-03-02T01:33:29.814Z,9.80
2024-03-02T01:34:32.238Z,9.80
2024-03-02T01:35:36.076Z,9.80
2024-03-02T01:36:38.487Z,9.90
2024-03-02T01:37:40.846Z,9.90
2024-03-02T01:38:43.252Z,10.00
2024-03-02T01:39:45.638Z,9.90
2024-03-02T01:40:48.197Z,9.80
2024-03-02T01:41:50.567Z,9.70
2024-03-02T01:42:53.178Z,9.80
2024-03-02T01:43:55.648Z,9.70
2024-03-02T01:44:58.058Z,9.80
2024-03-02T01:46:00.745Z,9.80
2024-03-02T01:47:03.188Z,9.80
2024-03-02T01:48:08.964Z,9.80
2024-03-02T01:49:11.377Z,9.90
2024-03-02T01:50:14.573Z,9.80
2024-03-02T01:51:16.927Z,9.80
2024-03-02T01:52:19.284Z,9.80
2024-03-02T01:53:21.764Z,9.80
2024-03-02T01:54:24.505Z,9.80
2024-03-02T01:55:28.098Z,9.70
2024-03-02T01:56:30.530Z,9.70
2024-03-02T01:57:33.242Z,9.70
2024-03-02T01:58:35.735Z,9.80
2024-03-02T01:59:38.091Z,9.90
2024-03-02T02:00:41.158Z,9.80
2024-03-02T02:01:43.775Z,9.80
2024-03-02T02:02:46.893Z,9.70
2024-03-02T02:03:49.239Z,9.80
2024-03-02T02:04:51.658Z,9.80
2024-03-02T02:05:54.154Z,9.80
2024-03-02T02:06:56.694Z,9.80
2024-03-02T02:07:59.787Z,9.80
2024-03-02T02:09:02.329Z,9.70
2024-03-02T02:10:05.097Z,9.70
2024-03-02T02:11:08.331Z,9.70
2024-03-02T02:12:11.519Z,9.80
2024-03-02T02:13:14.319Z,9.70
2024-03-02T02:14:16.807Z,9.80
2024-03-02T02:15:32.192Z,9.80
2024-03-02T02:16:34.804Z,9.70
2024-03-02T02:17:37.225Z,9.70
2024-03-02T02:18:39.696Z,9.70
2024-03-02T02:19:42.826Z,9.70
2024-03-02T02:20:45.166Z,9.70
2024-03-02T02:21:47.616Z,9.80
2024-03-02T02:23:03.782Z,9.80
2024-03-02T02:24:06.581Z,9.70
2024-03-02T02:25:09.041Z,9.70
2024-03-02T02:26:11.422Z,9.70
2024-03-02T02:27:16.475Z,9.60
2024-03-02T02:28:18.988Z,9.70
2024-03-02T02:29:21.434Z,9.60
2024-03-02T02:30:28.658Z,9.70
2024-03-02T02:31:43.557Z,9.70
2024-03-02T02:32:46.068Z,9.70
2024-03-02T02:33:48.437Z,9.70
2024-03-02T02:34:54.255Z,9.70
2024-03-02T02:35:56.683Z,9.80
2024-03-02T02:36:59.263Z,9.70
2024-03-02T02:38:02.162Z,9.60
2024-03-02T02:39:06.326Z,9.70
2024-03-02T02:40:10.239Z,9.70
2024-03-02T02:41:12.636Z,9.70
2024-03-02T02:42:15.027Z,9.70
2024-03-02T02:43:17.956Z,9.60
2024-03-02T02:44:20.275Z,9.70
2024-03-02T02:45:22.879Z,9.60
2024-03-02T02:46:25.503Z,9.60
2024-03-02T02:47:30.022Z,9.80
2024-03-02T02:48:32.425Z,9.60
2024-03-02T02:49:34.929Z,9.60
2024-03-02T02:50:37.705Z,9.60
2024-03-02T02:51:40.291Z,9.70
2024-03-02T02:52:43.790Z,9.70
2024-03-02T02:53:46.185Z,9.70
2024-03-02T02:54:48.658Z,9.60
2024-03-02T02:55:51.033Z,9.70
2024-03-02T02:56:53.380Z,9.60
2024-03-02T02:57:55.879Z,9.70
2024-03-02T02:58:58.321Z,9.70
2024-03-02T03:00:00.704Z,9.60
2024-03-02T03:01:03.317Z,9.70
2024-03-02T03:02:06.351Z,9.70
2024-03-02T03:03:08.821Z,9.70
2024-03-02T03:04:11.391Z,9.70
2024-03-02T03:05:15.378Z,9.70
2024-03-02T03:06:18.133Z,9.70
2024-03-02T03:07:20.493Z,9.70
2024-03-02T03:08:24.646Z,9.60
2024-03-02T03:09:27.125Z,9.70
2024-03-02T03:10:29.568Z,9.70
2024-03-02T03:11:31.987Z,9.60
2024-03-02T03:12:35.403Z,9.60
2024-03-02T03:13:37.986Z,9.60
2024-03-02T03:14:42.314Z,9.70
2024-03-02T03:15:44.793Z,9.60
2024-03-02T03:16:49.816Z,9.50
2024-03-02T03:17:52.361Z,9.60
2024-03-02T03:18:55.402Z,9.60
2024-03-02T03:19:57.826Z,9.60
2024-03-02T03:21:00.251Z,9.60
2024-03-02T03:22:02.872Z,9.50
2024-03-02T03:23:05.376Z,9.50
2024-03-02T03:24:07.880Z,9.40
2024-03-02T03:25:10.324Z,9.60
2024-03-02T03:26:12.833Z,9.60
2024-03-02T03:27:15.188Z,9.50
2024-03-02T03:28:17.602Z,9.50
2024-03-02T03:29:20.646Z,9.50
2024-03-02T03:30:23.169Z,9.50
2024-03-02T03:31:25.550Z,9.50
2024-03-02T03:32:27.910Z,9.60
2024-03-02T03:33:30.422Z,9.60
2024-03-02T03:34:36.548Z,9.60
2024-03-02T03:35:39.052Z,9.60
2024-03-02T03:36:41.541Z,9.60
2024-03-02T03:37:43.918Z,9.60
2024-03-02T03:38:46.298Z,9.60
2024-03-02T03:39:48.773Z,9.60
2024-03-02T03:40:51.184Z,9.70
2024-03-02T03:41:53.592Z,9.60
2024-03-02T03:42:58.046Z,9.60
2024-03-02T03:44:00.639Z,9.60
2024-03-02T03:45:03.680Z,9.60
2024-03-02T03:46:06.217Z,9.70
2024-03-02T03:47:08.628Z,9.60
2024-03-02T03:48:11.105Z,9.60
2024-03-02T03:49:13.467Z,9.60
2024-03-02T03:50:16.070Z,9.50
2024-03-02T03:51:18.536Z,9.40
2024-03-02T03:52:22.273Z,9.50
2024-03-02T03:53:25.548Z,9.60
2024-03-02T03:54:28.268Z,9.70
2024-03-02T03:55:30.741Z,9.70
2024-03-02T03:56:33.197Z,9.70
2024-03-02T03:57:35.820Z,9.70
2024-03-02T03:58:38.485Z,9.70
2024-03-02T03:59:40.862Z,9.60
2024-03-02T04:00:43.542Z,9.80
2024-03-02T04:01:46.092Z,9.70
2024-03-02T04:02:48.787Z,9.70
2024-03-02T04:03:51.310Z,9.70
2024-03-02T04:04:53.735Z,9.80
2024-03-02T04:05:56.235Z,9.60
2024-03-02T04:06:58.683Z,9.70
2024-03-02T04:08:01.780Z,9.70
2024-03-02T04:09:05.256Z,9.60
2024-03-02T04:10:11.628Z,9.70
2024-03-02T04:11:14.121Z,9.80
2024-03-02T04:12:16.760Z,9.80
2024-03-02T04:13:19.512Z,9.60
2024-03-02T04:14:21.866Z,9.60
2024-03-02T04:15:25.066Z,9.70
2024-03-02T04:16:27.545Z,9.70
2024-03-02T04:17:29.893Z,9.70
2024-03-02T04:18:33.696Z,9.70
2024-03-02T04:19:36.160Z,9.70
2024-03-02T04:20:38.597Z,9.80
2024-03-02T04:21:41.021Z,9.80
2024-03-02T04:22:43.503Z,9.80
2024-03-02T04:23:45.868Z,9.80
2024-03-02T04:24:48.287Z,9.70
2024-03-02T04:25:51.337Z,9.90
2024-03-02T04:26:53.763Z,9.70
2024-03-02T04:27:56.208Z,9.80
2024-03-02T04:28:58.553Z,9.90
2024-03-02T04:30:01.343Z,9.70
2024-03-02T04:31:03.876Z,9.80
2024-03-02T04:32:06.421Z,9.80
2024-03-02T04:33:11.233Z,9.70
2024-03-02T04:34:13.809Z,9.80
2024-03-02T04:35:16.503Z,9.80
2024-03-02T04:36:18.935Z,9.70
2024-03-02T04:37:21.318Z,9.70
2024-03-02T04:38:24.019Z,9.80
2024-03-02T04:39:26.409Z,9.80
2024-03-02T04:40:28.854Z,9.90
2024-03-02T04:41:31.252Z,9.70
2024-03-02T04:42:33.738Z,9.80
2024-03-02T04:43:36.622Z,9.80
2024-03-02T04:44:39.489Z,9.90
2024-03-02T04:45:41.911Z,9.90
2024-03-02T04:46:44.305Z,9.90
2024-03-02T04:47:49.390Z,9.90
2024-03-02T04:48:56.970Z,10.00
2024-03-02T04:49:59.328Z,9.90
2024-03-02T04:51:01.948Z,9.90
2024-03-02T04:52:04.788Z,9.80
2024-03-02T04:53:07.141Z,10.00
2024-03-02T04:54:09.581Z,10.00
2024-03-02T04:55:32.169Z,10.00
2024-03-02T04:56:45.553Z,10.00
2024-03-02T04:57:48.921Z,9.90
2024-03-02T04:58:51.348Z,10.00
2024-03-02T04:59:53.699Z,10.00
2024-03-02T05:00:56.226Z,9.90
2024-03-02T05:01:59.369Z,9.90
2024-03-02T05:03:02.378Z,9.90
2024-03-02T05:04:05.051Z,9.90
2024-03-02T05:05:07.587Z,10.00
2024-03-02T05:06:10.058Z,10.00
2024-03-02T05:07:12.580Z,10.00
2024-03-02T05:08:15.571Z,9.90
2024-03-02T05:09:18.504Z,9.90
2024-03-02T05:10:21.152Z,9.90
2024-03-02T05:11:38.599Z,10.00
2024-03-02T05:12:44.127Z,9.90
2024-03-02T05:13:46.699Z,10.00
2024-03-02T05:14:49.088Z,9.80
2024-03-02T05:15:51.585Z,9.80
2024-03-02T05:16:54.014Z,9.90
2024-03-02T05:17:58.323Z,9.90
2024-03-02T05:19:00.926Z,9.90
2024-03-02T05:20:04.977Z,9.90
2024-03-02T05:21:07.352Z,9.80
2024-03-02T05:22:09.850Z,9.80
2024-03-02T05:23:12.476Z,9.80
2024-03-02T05:24:14.896Z,9.80
2024-03-02T05:25:17.371Z,9.90
2024-03-02T05:26:19.886Z,9.80
2024-03-02T05:27:22.345Z,9.90
2024-03-02T05:28:24.745Z,9.80
2024-03-02T05:29:27.456Z,9.90
2024-03-02T05:30:29.940Z,9.90
2024-03-02T05:31:32.387Z,9.80
2024-03-02T05:32:35.465Z,9.80
2024-03-02T05:33:39.730Z,9.80
2024-03-02T05:34:42.342Z,9.90
2024-03-02T05:35:45.764Z,9.90
2024-03-02T05:36:48.186Z,9.80
2024-03-02T05:37:50.629Z,9.80
2024-03-02T05:38:53.065Z,9.70
2024-03-02T05:39:55.624Z,9.70
2024-03-02T05:40:58.018Z,9.70
2024-03-02T05:42:00.506Z,9.70
2024-03-02T05:43:02.968Z,9.70
2024-03-02T05:44:05.991Z,9.80
2024-03-02T05:45:08.823Z,9.80
2024-03-02T05:46:11.318Z,9.80
2024-03-02T05:47:13.730Z,9.80
2024-03-02T05:48:16.275Z,9.80
2024-03-02T05:49:18.662Z,9.80
2024-03-02T05:50:21.289Z,9.80
2024-03-02T05:51:23.676Z,9.70
2024-03-02T05:52:26.096Z,9.80
2024-03-02T05:53:28.504Z,9.80
2024-03-02T05:54:30.947Z,9.90
2024-03-02T05:55:33.365Z,9.80
2024-03-02T05:56:36.276Z,9.90
2024-03-02T05:57:44.715Z,9.90
2024-03-02T05:59:09.014Z,9.90
2024-03-02T06:00:12.328Z,9.90
2024-03-02T06:01:19.789Z,9.90
2024-03-02T06:02:22.307Z,9.90
2024-03-02T06:03:24.742Z,9.90
2024-03-02T06:04:27.126Z,9.90
2024-03-02T06:05:30.068Z,9.90
2024-03-02T06:06:34.821Z,10.00
2024-03-02T06:07:37.398Z,10.00
2024-03-02T06:08:39.793Z,10.10
2024-03-02T06:09:43.353Z,10.00
2024-03-02T06:10:45.793Z,10.00
2024-03-02T06:11:48.609Z,10.10
2024-03-02T06:12:51.105Z,10.00
2024-03-02T06:13:53.504Z,10.00
2024-03-02T06:14:55.873Z,10.10
2024-03-02T06:15:58.314Z,10.10
2024-03-02T06:17:00.829Z,10.20
2024-03-02T06:18:03.415Z,10.20
2024-03-02T06:19:05.978Z,10.20
2024-03-02T06:20:09.727Z,10.30
2024-03-02T06:21:12.325Z,10.30
2024-03-02T06:22:14.702Z,10.40
2024-03-02T06:23:17.131Z,10.30
2024-03-02T06:24:19.858Z,10.20
2024-03-02T06:25:22.299Z,10.30
2024-03-02T06:26:26.011Z,10.30
2024-03-02T06:27:28.788Z,10.40
2024-03-02T06:28:31.186Z,10.40
2024-03-02T06:29:36.423Z,10.30
2024-03-02T06:30:38.916Z,10.40
2024-03-02T06:31:41.716Z,10.40
2024-03-02T06:32:44.192Z,10.50
2024-03-02T06:33:46.720Z,10.50
2024-03-02T06:34:49.593Z,10.50
2024-03-02T06:35:52.067Z,10.40
2024-03-02T06:36:54.534Z,10.60
2024-03-02T06:37:56.933Z,10.60
2024-03-02T06:38:59.277Z,10.50
2024-03-02T06:40:01.783Z,10.60
2024-03-02T06:41:04.642Z,10.60
2024-03-02T06:42:07.127Z,10.60
2024-03-02T06:43:09.912Z,10.70
2024-03-02T06:44:12.257Z,10.70
2024-03-02T06:45:14.688Z,10.70
2024-03-02T06:46:17.111Z,10.60
2024-03-02T06:47:21.543Z,10.80
2024-03-02T06:48:24.911Z,10.80
2024-03-02T06:49:27.377Z,10.80
2024-03-02T06:50:30.138Z,10.90
2024-03-02T06:51:32.533Z,10.90
2024-03-02T06:52:34.982Z,10.90
2024-03-02T06:53:37.320Z,10.90
2024-03-02T06:54:39.698Z,11.00
2024-03-02T06:55:42.144Z,10.90
2024-03-02T06:56:44.525Z,10.90
2024-03-02T06:57:47.076Z,11.00
2024-03-02T06:58:49.552Z,11.10
2024-03-02T06:59:55.113Z,11.10
2024-03-02T07:00:57.571Z,11.10
2024-03-02T07:02:00.052Z,11.10
2024-03-02T07:03:02.417Z,11.10
2024-03-02T07:04:08.009Z,11.20
2024-03-02T07:05:10.900Z,11.30
2024-03-02T07:06:13.334Z,11.40
2024-03-02T07:07:15.754Z,11.30
2024-03-02T07:08:18.315Z,11.20
2024-03-02T07:09:23.906Z,11.30
2024-03-02T07:10:26.370Z,11.30
2024-03-02T07:11:28.776Z,11.40
2024-03-02T07:12:31.204Z,11.40
2024-03-02T07:13:33.660Z,11.40
2024-03-02T07:14:54.849Z,11.30
2024-03-02T07:16:12.325Z,11.40
2024-03-02T07:17:14.854Z,11.50
2024-03-02T07:18:17.364Z,11.50
2024-03-02T07:19:19.819Z,11.40
2024-03-02T07:20:22.283Z,11.50
2024-03-02T07:21:24.843Z,11.50
2024-03-02T07:22:27.222Z,11.70
2024-03-02T07:23:29.612Z,11.60
2024-03-02T07:24:31.993Z,11.50
2024-03-02T07:27:45.403Z,12.10
2024-03-02T07:28:49.656Z,12.10
2024-03-02T07:29:52.144Z,12.20
2024-03-02T07:31:05.770Z,12.30
2024-03-02T07:32:09.316Z,12.40
2024-03-02T07:33:12.071Z,12.30
2024-03-02T07:34:14.483Z,12.40
2024-03-02T07:35:17.004Z,12.30
2024-03-02T07:36:20.683Z,12.30
2024-03-02T07:37:24.398Z,12.20
2024-03-02T07:38:26.997Z,12.20
2024-03-02T07:39:30.922Z,12.20
2024-03-02T07:40:33.312Z,12.30
2024-03-02T07:41:35.691Z,12.20
2024-03-02T07:42:39.871Z,12.50
2024-03-02T07:43:42.247Z,12.50
2024-03-02T07:44:46.713Z,12.40
2024-03-02T07:45:49.515Z,12.50
2024-03-02T07:46:52.011Z,12.40
2024-03-02T07:47:54.856Z,12.40
2024-03-02T07:48:57.536Z,12.30
2024-03-02T07:49:59.902Z,12.30
2024-03-02T07:51:03.613Z,12.20
2024-03-02T07:52:06.086Z,12.20
2024-03-02T07:53:11.573Z,12.30
2024-03-02T07:54:14.125Z,12.10
2024-03-02T07:55:16.537Z,12.20
2024-03-02T07:56:23.515Z,12.20
2024-03-02T07:57:26.522Z,12.20
2024-03-02T07:58:29.134Z,12.10
2024-03-02T07:59:31.597Z,12.40
2024-03-02T08:00:34.621Z,12.50
2024-03-02T08:01:37.260Z,12.50
2024-03-02T08:02:39.842Z,12.70
2024-03-02T08:03:42.524Z,12.80
2024-03-02T08:04:46.028Z,12.90
2024-03-02T08:05:48.426Z,12.90
2024-03-02T08:06:50.969Z,12.90
2024-03-02T08:07:54.088Z,13.00
2024-03-02T08:09:00.545Z,13.00
2024-03-02T08:10:03.179Z,12.90
2024-03-02T08:11:05.737Z,13.00
2024-03-02T08:12:08.319Z,12.90
2024-03-02T08:13:10.737Z,12.90
2024-03-02T08:14:13.171Z,12.90
2024-03-02T08:15:15.666Z,12.90
2024-03-02T08:16:21.009Z,13.00
2024-03-02T08:17:23.560Z,12.90
2024-03-02T08:18:26.365Z,12.90
2024-03-02T08:19:28.864Z,12.90
2024-03-02T08:20:32.568Z,12.90
2024-03-02T08:21:36.669Z,13.00
2024-03-02T08:22:39.438Z,13.00
2024-03-02T08:23:44.909Z,13.00
2024-03-02T08:24:47.688Z,13.20
2024-03-02T08:25:50.156Z,13.30
2024-03-02T08:26:52.626Z,13.50
2024-03-02T08:27:55.616Z,13.60
2024-03-02T08:29:02.747Z,13.60
2024-03-02T08:30:08.343Z,13.70
2024-03-02T08:31:11.400Z,13.80
2024-03-02T08:32:13.887Z,13.80
2024-03-02T08:33:16.362Z,13.90
2024-03-02T08:34:18.757Z,13.90
2024-03-02T08:35:23.637Z,13.90
2024-03-02T08:36:26.225Z,13.90
2024-03-02T08:37:28.599Z,13.70
2024-03-02T08:38:31.143Z,13.80
2024-03-02T08:39:33.630Z,13.60
2024-03-02T08:40:36.194Z,13.60
2024-03-02T08:41:38.890Z,13.60
2024-03-02T08:42:41.356Z,13.80
2024-03-02T08:43:44.128Z,13.70
2024-03-02T08:44:46.592Z,13.80
2024-03-02T08:45:48.992Z,13.80
2024-03-02T08:46:51.424Z,14.10
2024-03-02T08:47:54.009Z,14.30
2024-03-02T08:48:56.506Z,14.40
2024-03-02T08:50:01.387Z,14.60
2024-03-02T08:51:07.374Z,14.50
2024-03-02T08:52:09.860Z,14.40
2024-03-02T08:53:12.401Z,14.50
2024-03-02T08:54:14.734Z,14.60
2024-03-02T08:55:17.094Z,14.70
2024-03-02T08:56:21.656Z,14.80
2024-03-02T08:57:24.085Z,14.80
2024-03-02T08:58:26.488Z,15.00
2024-03-02T08:59:29.084Z,15.30
2024-03-02T09:00:31.620Z,15.50
2024-03-02T09:01:34.469Z,15.60
2024-03-02T09:02:37.192Z,15.70
2024-03-02T09:03:39.644Z,15.60
2024-03-02T09:04:42.107Z,15.50
2024-03-02T09:05:44.590Z,15.60
2024-03-02T09:06:47.003Z,15.90
2024-03-02T09:07:49.410Z,15.90
2024-03-02T09:08:53.165Z,16.20
2024-03-02T09:09:55.518Z,16.20
2024-03-02T09:10:58.506Z,16.20
2024-03-02T09:12:20.497Z,16.10
2024-03-02T09:13:23.356Z,15.90
2024-03-02T09:14:25.899Z,16.00
2024-03-02T09:15:28.274Z,15.90
2024-03-02T09:16:32.148Z,16.20
2024-03-02T09:17:34.867Z,16.20
2024-03-02T09:18:37.448Z,16.30
2024-03-02T09:19:40.617Z,16.30
2024-03-02T09:20:43.043Z,16.50
2024-03-02T09:21:45.530Z,16.70
2024-03-02T09:22:50.039Z,16.70
2024-03-02T09:23:52.647Z,16.70
2024-03-02T09:24:55.087Z,16.80
2024-03-02T09:25:57.632Z,16.90
2024-03-02T09:27:00.433Z,17.10
2024-03-02T09:28:04.225Z,17.00
2024-03-02T09:29:06.905Z,16.90
2024-03-02T09:30:11.441Z,17.10
2024-03-02T09:31:13.875Z,17.10
2024-03-02T09:32:16.838Z,17.40
2024-03-02T09:33:19.649Z,17.40
2024-03-02T09:34:22.160Z,17.50
2024-03-02T09:35:24.526Z,17.50
2024-03-02T09:36:27.038Z,17.40
2024-03-02T09:37:30.032Z,17.40
2024-03-02T09:38:35.246Z,17.40
2024-03-02T09:39:37.689Z,17.40
2024-03-02T09:40:40.185Z,17.30
2024-03-02T09:41:42.667Z,17.20
2024-03-02T09:42:47.208Z,17.00
2024-03-02T09:43:50.548Z,16.90
2024-03-02T09:44:53.689Z,16.90
2024-03-02T09:45:56.341Z,17.00
2024-03-02T09:46:58.685Z,17.20
2024-03-02T09:48:01.650Z,17.30
2024-03-02T09:49:04.566Z,17.50
2024-03-02T09:50:08.599Z,17.60
2024-03-02T09:51:12.059Z,17.70
2024-03-02T09:52:15.937Z,17.80
2024-03-02T09:53:19.664Z,17.80
2024-03-02T09:54:23.447Z,17.70
2024-03-02T09:55:26.286Z,17.70
2024-03-02T09:56:28.684Z,17.60
2024-03-02T09:57:31.145Z,17.50
2024-03-02T09:58:33.529Z,17.70
2024-03-02T09:59:36.133Z,17.60
2024-03-02T10:00:39.056Z,17.60
2024-03-02T10:01:41.456Z,17.60
2024-03-02T10:02:44.797Z,17.80
2024-03-02T10:03:51.484Z,18.00
2024-03-02T10:04:54.082Z,18.40
2024-03-02T10:05:56.493Z,18.30
2024-03-02T10:07:19.436Z,18.20
2024-03-02T10:08:21.848Z,18.00
2024-03-02T10:09:30.543Z,17.80
2024-03-02T10:10:43.255Z,18.10
2024-03-02T10:11:45.697Z,18.10
2024-03-02T10:12:48.044Z,18.20
2024-03-02T10:13:50.553Z,18.30
2024-03-02T10:15:05.836Z,18.30
2024-03-02T10:16:14.562Z,18.20
2024-03-02T10:17:19.588Z,18.20
2024-03-02T10:18:30.101Z,18.40
2024-03-02T10:19:34.457Z,18.50
2024-03-02T10:20:37.167Z,18.60
2024-03-02T10:21:42.342Z,18.40
2024-03-02T10:22:44.804Z,18.40
2024-03-02T10:23:47.313Z,18.50
2024-03-02T10:24:53.472Z,18.40
2024-03-02T10:27:00.019Z,18.50
2024-03-02T10:28:02.846Z,18.50
2024-03-02T10:29:05.606Z,18.60
2024-03-02T10:30:12.181Z,18.50
2024-03-02T10:31:14.994Z,18.40
2024-03-02T10:32:18.077Z,18.10
2024-03-02T10:33:20.724Z,18.10
2024-03-02T10:34:23.423Z,18.10
2024-03-02T10:35:26.827Z,17.90
2024-03-02T10:36:30.235Z,17.90
2024-03-02T10:37:33.888Z,17.70
2024-03-02T10:38:36.367Z,17.80
2024-03-02T10:39:41.682Z,17.90
2024-03-02T10:40:50.069Z,18.00
2024-03-02T10:41:54.710Z,18.10
2024-03-02T10:42:57.835Z,17.90
2024-03-02T10:44:01.285Z,18.00
2024-03-02T10:45:04.446Z,18.20
2024-03-02T10:46:07.094Z,18.20
2024-03-02T10:47:13.495Z,18.30
2024-03-02T10:48:16.070Z,18.30
2024-03-02T10:49:18.929Z,18.40
2024-03-02T10:50:21.380Z,18.30
2024-03-02T10:51:24.098Z,18.30
2024-03-02T10:52:26.645Z,18.50
2024-03-02T10:53:29.129Z,18.60
2024-03-02T10:54:37.988Z,18.70
2024-03-02T10:55:41.171Z,18.60
2024-03-02T10:56:47.721Z,18.60
2024-03-02T10:57:55.608Z,18.70
2024-03-02T10:59:19.707Z,18.80
2024-03-02T11:00:28.092Z,18.90
2024-03-02T11:01:33.989Z,18.80
2024-03-02T11:02:39.719Z,18.80
2024-03-02T11:03:43.480Z,18.70
2024-03-02T11:04:48.243Z,18.70
2024-03-02T11:05:52.104Z,18.50
2024-03-02T11:07:06.007Z,18.40
2024-03-02T11:08:09.926Z,18.50
2024-03-02T11:09:14.597Z,18.60
2024-03-02T11:10:18.596Z,18.80
2024-03-02T11:11:29.141Z,18.70
2024-03-02T11:12:38.131Z,18.80
2024-03-02T11:13:49.340Z,18.80
2024-03-02T11:14:55.205Z,18.60
2024-03-02T11:16:05.312Z,18.40
2024-03-02T11:17:08.968Z,18.40
2024-03-02T11:18:12.333Z,18.30
2024-03-02T11:19:17.876Z,18.30
2024-03-02T11:20:21.633Z,18.40
2024-03-02T11:21:26.050Z,18.50
2024-03-02T11:22:28.683Z,18.60
2024-03-02T11:23:35.431Z,18.50
2024-03-02T11:24:38.999Z,18.60
2024-03-02T11:25:41.809Z,18.60
2024-03-02T11:26:44.167Z,18.50
2024-03-02T11:27:50.217Z,18.50
2024-03-02T11:28:52.992Z,18.40
2024-03-02T11:29:55.756Z,18.30
2024-03-02T11:30:58.228Z,18.30
2024-03-02T11:32:04.053Z,18.50
2024-03-02T11:33:11.267Z,18.50
2024-03-02T11:34:51.374Z,18.60
2024-03-02T11:35:54.169Z,18.70
2024-03-02T11:36:56.618Z,18.80
2024-03-02T11:38:01.959Z,18.80
2024-03-02T11:39:05.313Z,18.70
2024-03-02T11:40:11.468Z,18.80
2024-03-02T11:41:15.525Z,18.70
2024-03-02T11:42:18.681Z,18.80
2024-03-02T11:43:21.496Z,18.80
2024-03-02T11:44:24.016Z,18.80
2024-03-02T11:45:30.102Z,18.70
2024-03-02T11:46:32.569Z,18.80
2024-03-02T11:47:38.580Z,18.90
2024-03-02T11:48:41.987Z,19.00
2024-03-02T11:49:51.426Z,18.90
2024-03-02T11:50:54.477Z,19.00
2024-03-02T11:52:03.295Z,19.00
2024-03-02T11:53:09.138Z,19.00
2024-03-02T11:54:12.944Z,19.00
2024-03-02T11:55:17.223Z,18.90
2024-03-02T11:56:20.805Z,18.90
2024-03-02T11:57:24.104Z,18.90
2024-03-02T11:58:28.667Z,18.90
2024-03-02T11:59:31.605Z,19.10
2024-03-02T12:00:34.412Z,19.10
2024-03-02T12:01:37.258Z,19.10
2024-03-02T12:02:41.435Z,19.20
2024-03-02T12:03:43.959Z,19.20
2024-03-02T12:04:47.875Z,19.30
2024-03-02T12:05:56.767Z,19.30
2024-03-02T12:07:01.674Z,19.20
2024-03-02T12:08:06.101Z,19.10
2024-03-02T12:09:16.122Z,19.10
2024-03-02T12:10:18.595Z,19.00
2024-03-02T12:11:22.210Z,19.00
2024-03-02T12:12:24.673Z,18.90
2024-03-02T12:13:27.427Z,19.00
2024-03-02T12:14:30.341Z,19.00
2024-03-02T12:15:40.804Z,19.00
2024-03-02T12:16:46.389Z,19.10
2024-03-02T12:17:48.823Z,19.30
2024-03-02T12:18:51.188Z,19.40
2024-03-02T12:19:54.080Z,19.50
2024-03-02T12:20:59.153Z,19.50
2024-03-02T12:22:02.381Z,19.60
2024-03-02T12:23:06.789Z,19.50
2024-03-02T12:24:09.215Z,19.60
2024-03-02T12:25:11.720Z,19.60
2024-03-02T12:26:14.161Z,19.60
2024-03-02T12:27:17.272Z,19.60
2024-03-02T12:28:23.797Z,19.70
2024-03-02T12:29:26.299Z,19.60
2024-03-02T12:30:31.328Z,19.60
2024-03-02T12:31:36.656Z,19.30
2024-03-02T12:32:40.686Z,19.20
2024-03-02T12:33:43.337Z,19.10
2024-03-02T12:34:48.412Z,19.30
2024-03-02T12:35:51.365Z,19.40
2024-03-02T12:36:54.572Z,19.20
2024-03-02T12:37:57.179Z,19.10
2024-03-02T12:38:59.576Z,19.30
2024-03-02T12:40:02.234Z,19.40
2024-03-02T12:41:06.862Z,19.30
2024-03-02T12:42:09.295Z,19.60
2024-03-02T12:43:12.328Z,19.60
2024-03-02T12:44:14.821Z,19.70
2024-03-02T12:45:17.854Z,19.80
2024-03-02T12:46:20.582Z,20.00
2024-03-02T12:47:23.303Z,20.20
2024-03-02T12:48:26.245Z,20.10
2024-03-02T12:49:29.945Z,20.10
2024-03-02T12:50:32.488Z,19.70
2024-03-02T12:51:35.148Z,19.80
2024-03-02T12:52:37.649Z,19.70
2024-03-02T12:53:40.089Z,19.80
2024-03-02T12:54:42.647Z,19.70
2024-03-02T12:55:45.816Z,19.70
2024-03-02T12:56:48.725Z,19.80
2024-03-02T12:57:53.194Z,19.80
2024-03-02T12:58:56.597Z,19.90
2024-03-02T13:00:11.000Z,19.80
2024-03-02T13:01:20.260Z,19.90
2024-03-02T13:02:22.864Z,19.80
2024-03-02T13:03:25.297Z,19.70
2024-03-02T13:04:29.753Z,19.60
2024-03-02T13:05:33.304Z,19.50
2024-03-02T13:06:35.833Z,19.40
2024-03-02T13:07:46.235Z,19.60
2024-03-02T13:08:48.772Z,19.60
2024-03-02T13:09:51.805Z,19.70
2024-03-02T13:10:54.191Z,19.90
2024-03-02T13:11:58.104Z,19.90
2024-03-02T13:13:01.963Z,19.90
2024-03-02T13:14:04.668Z,20.10
2024-03-02T13:15:07.423Z,20.10
2024-03-02T13:16:11.608Z,20.00
2024-03-02T13:17:15.588Z,20.00
2024-03-02T13:18:20.423Z,19.90
2024-03-02T13:19:22.875Z,19.80
2024-03-02T13:20:32.980Z,19.10
2024-03-02T13:21:35.681Z,18.80
2024-03-02T13:22:38.385Z,18.80
2024-03-02T13:23:40.818Z,19.10
2024-03-02T13:24:43.961Z,19.10
2024-03-02T13:25:48.595Z,18.90
2024-03-02T13:26:53.189Z,18.90
2024-03-02T13:27:56.042Z,19.10
2024-03-02T13:28:58.581Z,19.30
2024-03-02T13:30:01.357Z,19.40
2024-03-02T13:31:04.072Z,19.60
2024-03-02T13:32:06.707Z,19.60
2024-03-02T13:33:09.196Z,19.70
2024-03-02T13:34:11.749Z,19.70
2024-03-02T13:35:14.424Z,19.50
2024-03-02T13:36:16.898Z,19.30
2024-03-02T13:37:19.596Z,19.30
2024-03-02T13:38:22.534Z,19.20
2024-03-02T13:39:25.063Z,19.00
2024-03-02T13:40:27.540Z,19.00
2024-03-02T13:41:29.950Z,18.70
2024-03-02T13:42:32.615Z,18.30
2024-03-02T13:43:36.484Z,18.20
2024-03-02T13:44:39.579Z,18.40
2024-03-02T13:45:42.093Z,17.80
2024-03-02T13:46:46.828Z,17.30
2024-03-02T13:47:49.536Z,17.10
2024-03-02T13:48:53.246Z,17.10
2024-03-02T13:50:00.858Z,17.20
2024-03-02T13:51:03.476Z,16.90
2024-03-02T13:52:11.807Z,17.10